sensor_id;sensor_type;location;lat;lon;timestamp;P1;durP1;ratioP1;P2;durP2;ratioP2
63203;SDS011;49297;43.210;27.914;2022-09-02T00:00:55;4.30;;;3.90;;
63203;SDS011;49297;43.210;27.914;2022-09-02T00:03:26;4.35;;;4.05;;
63203;SDS011;49297;43.210;27.914;2022-09-02T00:05:58;5.50;;;4.40;;
63203;SDS011;49297;43.210;27.914;2022-09-02T00:08:24;8.52;;;5.05;;
63203;SDS011;49297;43.210;27.914;2022-09-02T00:10:50;4.97;;;4.43;;
63203;SDS011;49297;43.210;27.914;2022-09-02T00:13:17;5.93;;;4.43;;
63203;SDS011;49297;43.210;27.914;2022-09-02T00:15:45;5.63;;;4.75;;
63203;SDS011;49297;43.210;27.914;2022-09-02T00:18:12;6.18;;;5.68;;
63203;SDS011;49297;43.210;27.914;2022-09-02T00:20:39;5.28;;;4.68;;
63203;SDS011;49297;43.210;27.914;2022-09-02T00:23:07;6.18;;;4.30;;
63203;SDS011;49297;43.210;27.914;2022-09-02T00:25:34;4.95;;;4.45;;
63203;SDS011;49297;43.210;27.914;2022-09-02T00:28:01;6.50;;;5.38;;
63203;SDS011;49297;43.210;27.914;2022-09-02T00:30:27;12.02;;;5.30;;
63203;SDS011;49297;43.210;27.914;2022-09-02T00:32:53;7.65;;;4.28;;
63203;SDS011;49297;43.210;27.914;2022-09-02T00:35:19;4.82;;;4.22;;
63203;SDS011;49297;43.210;27.914;2022-09-02T00:37:45;8.50;;;4.50;;
63203;SDS011;49297;43.210;27.914;2022-09-02T00:40:12;4.60;;;4.20;;
63203;SDS011;49297;43.210;27.914;2022-09-02T00:42:38;8.60;;;4.97;;
63203;SDS011;49297;43.210;27.914;2022-09-02T00:45:05;6.68;;;4.90;;
63203;SDS011;49297;43.210;27.914;2022-09-02T00:47:32;8.40;;;5.07;;
63203;SDS011;49297;43.210;27.914;2022-09-02T00:49:58;6.65;;;5.00;;
63203;SDS011;49297;43.210;27.914;2022-09-02T00:52:32;5.10;;;4.63;;
63203;SDS011;49297;43.210;27.914;2022-09-02T00:55:13;7.78;;;4.45;;
63203;SDS011;49297;43.210;27.914;2022-09-02T00:58:05;5.93;;;4.95;;
63203;SDS011;49297;43.210;27.914;2022-09-02T01:00:39;5.03;;;3.97;;
63203;SDS011;49297;43.210;27.914;2022-09-02T01:03:09;4.50;;;4.10;;
63203;SDS011;49297;43.210;27.914;2022-09-02T01:05:39;6.57;;;4.78;;
63203;SDS011;49297;43.210;27.914;2022-09-02T01:08:09;5.05;;;4.65;;
63203;SDS011;49297;43.210;27.914;2022-09-02T01:10:40;5.00;;;4.50;;
63203;SDS011;49297;43.210;27.914;2022-09-02T01:13:09;5.25;;;4.07;;
63203;SDS011;49297;43.210;27.914;2022-09-02T01:15:41;5.78;;;4.75;;
63203;SDS011;49297;43.210;27.914;2022-09-02T01:18:12;5.87;;;4.17;;
63203;SDS011;49297;43.210;27.914;2022-09-02T01:20:41;4.45;;;3.65;;
63203;SDS011;49297;43.210;27.914;2022-09-02T01:23:07;6.32;;;4.38;;
63203;SDS011;49297;43.210;27.914;2022-09-02T01:25:33;4.93;;;4.40;;
63203;SDS011;49297;43.210;27.914;2022-09-02T01:28:04;5.45;;;4.55;;
63203;SDS011;49297;43.210;27.914;2022-09-02T01:30:32;6.68;;;4.72;;
63203;SDS011;49297;43.210;27.914;2022-09-02T01:33:00;7.55;;;4.03;;
63203;SDS011;49297;43.210;27.914;2022-09-02T01:35:26;4.38;;;3.97;;
63203;SDS011;49297;43.210;27.914;2022-09-02T01:37:54;6.18;;;4.53;;
63203;SDS011;49297;43.210;27.914;2022-09-02T01:40:22;6.05;;;4.07;;
63203;SDS011;49297;43.210;27.914;2022-09-02T01:42:56;12.32;;;4.65;;
63203;SDS011;49297;43.210;27.914;2022-09-02T01:45:39;6.05;;;4.50;;
63203;SDS011;49297;43.210;27.914;2022-09-02T01:48:08;6.70;;;4.38;;
63203;SDS011;49297;43.210;27.914;2022-09-02T01:50:36;4.45;;;4.05;;
63203;SDS011;49297;43.210;27.914;2022-09-02T01:53:04;4.75;;;3.90;;
63203;SDS011;49297;43.210;27.914;2022-09-02T01:55:30;5.13;;;3.63;;
63203;SDS011;49297;43.210;27.914;2022-09-02T01:57:58;6.00;;;4.07;;
63203;SDS011;49297;43.210;27.914;2022-09-02T02:00:26;9.63;;;4.13;;
63203;SDS011;49297;43.210;27.914;2022-09-02T02:02:52;4.82;;;4.10;;
63203;SDS011;49297;43.210;27.914;2022-09-02T02:05:18;6.18;;;4.30;;
63203;SDS011;49297;43.210;27.914;2022-09-02T02:07:44;6.75;;;4.40;;
63203;SDS011;49297;43.210;27.914;2022-09-02T02:10:10;7.15;;;4.53;;
63203;SDS011;49297;43.210;27.914;2022-09-02T02:12:38;8.88;;;4.43;;
63203;SDS011;49297;43.210;27.914;2022-09-02T02:15:05;4.55;;;3.80;;
63203;SDS011;49297;43.210;27.914;2022-09-02T02:17:34;8.43;;;3.53;;
63203;SDS011;49297;43.210;27.914;2022-09-02T02:19:59;3.70;;;3.40;;
63203;SDS011;49297;43.210;27.914;2022-09-02T02:22:25;4.88;;;3.47;;
63203;SDS011;49297;43.210;27.914;2022-09-02T02:24:52;6.80;;;3.28;;
63203;SDS011;49297;43.210;27.914;2022-09-02T02:27:18;7.05;;;4.18;;
63203;SDS011;49297;43.210;27.914;2022-09-02T02:29:45;4.22;;;3.47;;
63203;SDS011;49297;43.210;27.914;2022-09-02T02:32:11;6.57;;;4.38;;
63203;SDS011;49297;43.210;27.914;2022-09-02T02:34:37;9.45;;;3.90;;
63203;SDS011;49297;43.210;27.914;2022-09-02T02:37:04;3.78;;;3.47;;
63203;SDS011;49297;43.210;27.914;2022-09-02T02:39:30;7.55;;;3.58;;
63203;SDS011;49297;43.210;27.914;2022-09-02T02:41:56;4.45;;;2.83;;
63203;SDS011;49297;43.210;27.914;2022-09-02T02:44:22;4.57;;;3.70;;
63203;SDS011;49297;43.210;27.914;2022-09-02T02:46:48;4.20;;;3.08;;
63203;SDS011;49297;43.210;27.914;2022-09-02T02:49:14;8.68;;;3.70;;
63203;SDS011;49297;43.210;27.914;2022-09-02T02:51:40;3.38;;;3.08;;
63203;SDS011;49297;43.210;27.914;2022-09-02T02:54:07;10.02;;;3.20;;
63203;SDS011;49297;43.210;27.914;2022-09-02T02:56:34;3.58;;;3.22;;
63203;SDS011;49297;43.210;27.914;2022-09-02T02:59:00;4.35;;;3.47;;
63203;SDS011;49297;43.210;27.914;2022-09-02T03:01:28;4.55;;;3.13;;
63203;SDS011;49297;43.210;27.914;2022-09-02T03:03:55;4.50;;;3.95;;
63203;SDS011;49297;43.210;27.914;2022-09-02T03:06:21;6.18;;;2.72;;
63203;SDS011;49297;43.210;27.914;2022-09-02T03:08:47;3.00;;;2.75;;
63203;SDS011;49297;43.210;27.914;2022-09-02T03:11:14;4.78;;;3.42;;
63203;SDS011;49297;43.210;27.914;2022-09-02T03:13:40;3.75;;;3.40;;
63203;SDS011;49297;43.210;27.914;2022-09-02T03:16:06;5.93;;;3.03;;
63203;SDS011;49297;43.210;27.914;2022-09-02T03:18:33;10.15;;;3.10;;
63203;SDS011;49297;43.210;27.914;2022-09-02T03:20:59;5.75;;;3.55;;
63203;SDS011;49297;43.210;27.914;2022-09-02T03:23:25;2.92;;;2.53;;
63203;SDS011;49297;43.210;27.914;2022-09-02T03:25:52;6.78;;;4.15;;
63203;SDS011;49297;43.210;27.914;2022-09-02T03:28:18;2.75;;;2.53;;
63203;SDS011;49297;43.210;27.914;2022-09-02T03:30:44;3.83;;;3.25;;
63203;SDS011;49297;43.210;27.914;2022-09-02T03:33:11;4.00;;;3.58;;
63203;SDS011;49297;43.210;27.914;2022-09-02T03:35:38;7.38;;;3.95;;
63203;SDS011;49297;43.210;27.914;2022-09-02T03:38:05;2.75;;;2.50;;
63203;SDS011;49297;43.210;27.914;2022-09-02T03:40:31;5.90;;;3.47;;
63203;SDS011;49297;43.210;27.914;2022-09-02T03:42:57;3.63;;;3.17;;
63203;SDS011;49297;43.210;27.914;2022-09-02T03:45:23;6.10;;;3.97;;
63203;SDS011;49297;43.210;27.914;2022-09-02T03:47:49;6.85;;;3.80;;
63203;SDS011;49297;43.210;27.914;2022-09-02T03:50:17;6.05;;;3.67;;
63203;SDS011;49297;43.210;27.914;2022-09-02T03:52:47;7.03;;;3.55;;
63203;SDS011;49297;43.210;27.914;2022-09-02T03:55:14;12.68;;;3.95;;
63203;SDS011;49297;43.210;27.914;2022-09-02T03:57:40;5.05;;;4.55;;
63203;SDS011;49297;43.210;27.914;2022-09-02T04:00:07;7.25;;;4.57;;
63203;SDS011;49297;43.210;27.914;2022-09-02T04:02:34;8.10;;;3.08;;
63203;SDS011;49297;43.210;27.914;2022-09-02T04:05:00;8.80;;;4.68;;
63203;SDS011;49297;43.210;27.914;2022-09-02T04:07:25;3.92;;;3.05;;
63203;SDS011;49297;43.210;27.914;2022-09-02T04:09:51;11.82;;;4.18;;
63203;SDS011;49297;43.210;27.914;2022-09-02T04:12:17;5.55;;;3.92;;
63203;SDS011;49297;43.210;27.914;2022-09-02T04:17:08;8.88;;;3.13;;
63203;SDS011;49297;43.210;27.914;2022-09-02T04:19:34;7.40;;;4.13;;
63203;SDS011;49297;43.210;27.914;2022-09-02T04:22:02;5.88;;;4.75;;
63203;SDS011;49297;43.210;27.914;2022-09-02T04:26:53;5.30;;;4.13;;
63203;SDS011;49297;43.210;27.914;2022-09-02T04:29:19;5.97;;;4.03;;
63203;SDS011;49297;43.210;27.914;2022-09-02T04:31:45;10.48;;;4.40;;
63203;SDS011;49297;43.210;27.914;2022-09-02T04:34:11;4.13;;;3.33;;
63203;SDS011;49297;43.210;27.914;2022-09-02T04:36:37;5.88;;;4.28;;
63203;SDS011;49297;43.210;27.914;2022-09-02T04:39:03;7.25;;;4.00;;
63203;SDS011;49297;43.210;27.914;2022-09-02T04:41:29;6.72;;;4.38;;
63203;SDS011;49297;43.210;27.914;2022-09-02T04:43:55;5.68;;;3.97;;
63203;SDS011;49297;43.210;27.914;2022-09-02T04:46:23;5.10;;;4.25;;
63203;SDS011;49297;43.210;27.914;2022-09-02T04:48:49;4.53;;;3.28;;
63203;SDS011;49297;43.210;27.914;2022-09-02T04:51:17;12.48;;;3.72;;
63203;SDS011;49297;43.210;27.914;2022-09-02T04:53:45;4.00;;;3.42;;
63203;SDS011;49297;43.210;27.914;2022-09-02T04:56:14;6.25;;;3.72;;
63203;SDS011;49297;43.210;27.914;2022-09-02T05:06:08;7.18;;;3.67;;
63203;SDS011;49297;43.210;27.914;2022-09-02T05:11:04;3.97;;;3.58;;
63203;SDS011;49297;43.210;27.914;2022-09-02T05:13:31;4.82;;;4.15;;
63203;SDS011;49297;43.210;27.914;2022-09-02T05:18:22;6.88;;;3.90;;
63203;SDS011;49297;43.210;27.914;2022-09-02T05:20:48;6.10;;;4.25;;
63203;SDS011;49297;43.210;27.914;2022-09-02T05:23:14;5.72;;;4.43;;
63203;SDS011;49297;43.210;27.914;2022-09-02T05:25:40;6.07;;;3.92;;
63203;SDS011;49297;43.210;27.914;2022-09-02T05:28:06;10.20;;;3.83;;
63203;SDS011;49297;43.210;27.914;2022-09-02T05:30:39;6.63;;;3.63;;
63203;SDS011;49297;43.210;27.914;2022-09-02T05:33:06;5.97;;;3.92;;
63203;SDS011;49297;43.210;27.914;2022-09-02T05:38:03;8.93;;;4.45;;
63203;SDS011;49297;43.210;27.914;2022-09-02T05:40:29;5.45;;;4.78;;
63203;SDS011;49297;43.210;27.914;2022-09-02T05:42:55;5.43;;;3.90;;
63203;SDS011;49297;43.210;27.914;2022-09-02T05:45:21;5.70;;;3.45;;
63203;SDS011;49297;43.210;27.914;2022-09-02T05:47:48;9.45;;;3.40;;
63203;SDS011;49297;43.210;27.914;2022-09-02T05:52:40;11.05;;;4.20;;
63203;SDS011;49297;43.210;27.914;2022-09-02T05:55:07;10.32;;;4.18;;
63203;SDS011;49297;43.210;27.914;2022-09-02T05:57:33;11.40;;;4.57;;
63203;SDS011;49297;43.210;27.914;2022-09-02T05:59:59;5.40;;;3.80;;
63203;SDS011;49297;43.210;27.914;2022-09-02T06:02:25;5.93;;;3.72;;
63203;SDS011;49297;43.210;27.914;2022-09-02T06:04:51;9.55;;;3.95;;
63203;SDS011;49297;43.210;27.914;2022-09-02T06:07:19;12.45;;;4.00;;
63203;SDS011;49297;43.210;27.914;2022-09-02T06:09:47;6.07;;;4.00;;
63203;SDS011;49297;43.210;27.914;2022-09-02T06:12:15;7.50;;;3.80;;
63203;SDS011;49297;43.210;27.914;2022-09-02T06:14:46;14.15;;;3.95;;
63203;SDS011;49297;43.210;27.914;2022-09-02T06:17:12;8.38;;;3.83;;
63203;SDS011;49297;43.210;27.914;2022-09-02T06:19:38;16.25;;;5.18;;
63203;SDS011;49297;43.210;27.914;2022-09-02T06:22:05;11.60;;;3.63;;
63203;SDS011;49297;43.210;27.914;2022-09-02T06:24:31;5.93;;;3.97;;
63203;SDS011;49297;43.210;27.914;2022-09-02T06:26:57;11.30;;;4.70;;
63203;SDS011;49297;43.210;27.914;2022-09-02T06:29:25;8.88;;;4.40;;
63203;SDS011;49297;43.210;27.914;2022-09-02T06:31:51;7.20;;;5.22;;
63203;SDS011;49297;43.210;27.914;2022-09-02T06:36:45;7.57;;;4.80;;
63203;SDS011;49297;43.210;27.914;2022-09-02T06:39:14;5.75;;;4.95;;
63203;SDS011;49297;43.210;27.914;2022-09-02T06:44:17;8.40;;;4.53;;
63203;SDS011;49297;43.210;27.914;2022-09-02T06:46:47;11.93;;;5.47;;
63203;SDS011;49297;43.210;27.914;2022-09-02T06:49:17;12.20;;;5.07;;
63203;SDS011;49297;43.210;27.914;2022-09-02T06:51:44;13.05;;;4.90;;
63203;SDS011;49297;43.210;27.914;2022-09-02T06:54:13;6.90;;;4.68;;
63203;SDS011;49297;43.210;27.914;2022-09-02T06:56:41;8.45;;;4.55;;
63203;SDS011;49297;43.210;27.914;2022-09-02T06:59:08;11.32;;;4.43;;
63203;SDS011;49297;43.210;27.914;2022-09-02T07:01:35;8.35;;;6.28;;
63203;SDS011;49297;43.210;27.914;2022-09-02T07:04:01;9.05;;;6.20;;
63203;SDS011;49297;43.210;27.914;2022-09-02T07:06:50;10.50;;;5.40;;
63203;SDS011;49297;43.210;27.914;2022-09-02T07:09:20;8.30;;;5.70;;
63203;SDS011;49297;43.210;27.914;2022-09-02T07:16:43;8.88;;;5.30;;
63203;SDS011;49297;43.210;27.914;2022-09-02T07:19:12;12.45;;;6.13;;
63203;SDS011;49297;43.210;27.914;2022-09-02T07:21:38;14.75;;;5.00;;
63203;SDS011;49297;43.210;27.914;2022-09-02T07:24:06;7.05;;;5.53;;
63203;SDS011;49297;43.210;27.914;2022-09-02T07:26:33;9.55;;;5.63;;
63203;SDS011;49297;43.210;27.914;2022-09-02T07:28:59;5.38;;;4.85;;
63203;SDS011;49297;43.210;27.914;2022-09-02T07:31:25;10.82;;;7.07;;
63203;SDS011;49297;43.210;27.914;2022-09-02T07:33:54;6.07;;;4.65;;
63203;SDS011;49297;43.210;27.914;2022-09-02T07:36:23;6.07;;;4.82;;
63203;SDS011;49297;43.210;27.914;2022-09-02T07:38:50;39.40;;;5.93;;
63203;SDS011;49297;43.210;27.914;2022-09-02T07:41:17;8.25;;;4.78;;
63203;SDS011;49297;43.210;27.914;2022-09-02T07:43:44;9.98;;;5.55;;
63203;SDS011;49297;43.210;27.914;2022-09-02T07:46:10;10.02;;;5.22;;
63203;SDS011;49297;43.210;27.914;2022-09-02T07:48:39;11.13;;;5.95;;
63203;SDS011;49297;43.210;27.914;2022-09-02T07:51:08;9.57;;;5.43;;
63203;SDS011;49297;43.210;27.914;2022-09-02T07:53:35;6.75;;;4.93;;
63203;SDS011;49297;43.210;27.914;2022-09-02T07:56:01;11.32;;;5.43;;
63203;SDS011;49297;43.210;27.914;2022-09-02T07:58:27;8.77;;;5.25;;
63203;SDS011;49297;43.210;27.914;2022-09-02T08:00:54;8.90;;;5.75;;
63203;SDS011;49297;43.210;27.914;2022-09-02T08:03:21;7.70;;;5.25;;
63203;SDS011;49297;43.210;27.914;2022-09-02T08:05:48;8.77;;;5.57;;
63203;SDS011;49297;43.210;27.914;2022-09-02T08:10:41;10.13;;;5.18;;
63203;SDS011;49297;43.210;27.914;2022-09-02T08:13:07;18.23;;;6.07;;
63203;SDS011;49297;43.210;27.914;2022-09-02T08:18:06;14.60;;;5.28;;
63203;SDS011;49297;43.210;27.914;2022-09-02T08:20:32;13.05;;;5.38;;
63203;SDS011;49297;43.210;27.914;2022-09-02T08:22:59;17.80;;;5.20;;
63203;SDS011;49297;43.210;27.914;2022-09-02T08:25:24;14.20;;;5.35;;
63203;SDS011;49297;43.210;27.914;2022-09-02T08:27:52;13.20;;;5.85;;
63203;SDS011;49297;43.210;27.914;2022-09-02T08:30:19;10.05;;;4.93;;
63203;SDS011;49297;43.210;27.914;2022-09-02T08:32:45;7.30;;;4.85;;
63203;SDS011;49297;43.210;27.914;2022-09-02T08:35:10;6.47;;;5.00;;
63203;SDS011;49297;43.210;27.914;2022-09-02T08:37:36;8.63;;;4.70;;
63203;SDS011;49297;43.210;27.914;2022-09-02T08:40:04;8.57;;;4.93;;
63203;SDS011;49297;43.210;27.914;2022-09-02T08:42:34;5.82;;;5.22;;
63203;SDS011;49297;43.210;27.914;2022-09-02T08:45:07;9.35;;;5.20;;
63203;SDS011;49297;43.210;27.914;2022-09-02T08:47:37;10.43;;;5.90;;
63203;SDS011;49297;43.210;27.914;2022-09-02T08:50:17;8.77;;;6.53;;
63203;SDS011;49297;43.210;27.914;2022-09-02T08:55:20;8.40;;;4.90;;
63203;SDS011;49297;43.210;27.914;2022-09-02T08:57:52;7.57;;;5.47;;
63203;SDS011;49297;43.210;27.914;2022-09-02T09:00:20;7.47;;;5.75;;
63203;SDS011;49297;43.210;27.914;2022-09-02T09:02:55;11.27;;;5.50;;
63203;SDS011;49297;43.210;27.914;2022-09-02T09:08:27;10.10;;;6.55;;
63203;SDS011;49297;43.210;27.914;2022-09-02T09:11:27;6.55;;;5.22;;
63203;SDS011;49297;43.210;27.914;2022-09-02T09:19:23;15.10;;;6.05;;
63203;SDS011;49297;43.210;27.914;2022-09-02T09:22:00;9.10;;;5.90;;
63203;SDS011;49297;43.210;27.914;2022-09-02T09:27:13;12.60;;;6.30;;
63203;SDS011;49297;43.210;27.914;2022-09-02T09:29:47;10.40;;;5.75;;
63203;SDS011;49297;43.210;27.914;2022-09-02T09:32:18;10.40;;;6.00;;
63203;SDS011;49297;43.210;27.914;2022-09-02T09:37:42;10.13;;;6.10;;
63203;SDS011;49297;43.210;27.914;2022-09-02T09:42:42;10.43;;;5.93;;
63203;SDS011;49297;43.210;27.914;2022-09-02T09:45:19;10.55;;;5.90;;
63203;SDS011;49297;43.210;27.914;2022-09-02T09:52:52;11.13;;;5.67;;
63203;SDS011;49297;43.210;27.914;2022-09-02T09:55:19;10.05;;;8.20;;
63203;SDS011;49297;43.210;27.914;2022-09-02T09:57:47;13.77;;;6.38;;
63203;SDS011;49297;43.210;27.914;2022-09-02T10:03:00;8.98;;;6.22;;
63203;SDS011;49297;43.210;27.914;2022-09-02T10:05:36;12.43;;;5.15;;
63203;SDS011;49297;43.210;27.914;2022-09-02T10:08:06;11.32;;;5.00;;
63203;SDS011;49297;43.210;27.914;2022-09-02T10:11:00;12.38;;;5.15;;
63203;SDS011;49297;43.210;27.914;2022-09-02T10:13:29;8.32;;;6.13;;
63203;SDS011;49297;43.210;27.914;2022-09-02T10:26:24;6.95;;;5.28;;
63203;SDS011;49297;43.210;27.914;2022-09-02T10:29:29;16.40;;;5.75;;
63203;SDS011;49297;43.210;27.914;2022-09-02T10:37:18;7.55;;;5.57;;
63203;SDS011;49297;43.210;27.914;2022-09-02T10:42:45;8.82;;;5.40;;
63203;SDS011;49297;43.210;27.914;2022-09-02T10:45:43;8.60;;;5.80;;
63203;SDS011;49297;43.210;27.914;2022-09-02T10:51:27;7.25;;;5.70;;
63203;SDS011;49297;43.210;27.914;2022-09-02T10:56:38;14.30;;;6.32;;
63203;SDS011;49297;43.210;27.914;2022-09-02T10:59:29;12.82;;;5.63;;
63203;SDS011;49297;43.210;27.914;2022-09-02T11:02:27;10.95;;;6.63;;
63203;SDS011;49297;43.210;27.914;2022-09-02T11:07:39;10.38;;;7.40;;
63203;SDS011;49297;43.210;27.914;2022-09-02T11:10:11;12.35;;;7.75;;
63203;SDS011;49297;43.210;27.914;2022-09-02T11:12:46;10.35;;;5.75;;
63203;SDS011;49297;43.210;27.914;2022-09-02T11:15:34;9.02;;;5.32;;
63203;SDS011;49297;43.210;27.914;2022-09-02T11:23:25;11.48;;;6.13;;
63203;SDS011;49297;43.210;27.914;2022-09-02T11:26:25;22.75;;;6.35;;
63203;SDS011;49297;43.210;27.914;2022-09-02T11:29:00;6.78;;;5.50;;
63203;SDS011;49297;43.210;27.914;2022-09-02T11:34:09;18.23;;;6.60;;
63203;SDS011;49297;43.210;27.914;2022-09-02T11:36:39;28.27;;;9.90;;
63203;SDS011;49297;43.210;27.914;2022-09-02T11:39:12;27.20;;;8.60;;
63203;SDS011;49297;43.210;27.914;2022-09-02T11:58:41;13.13;;;6.15;;
63203;SDS011;49297;43.210;27.914;2022-09-02T12:03:48;10.93;;;5.22;;
63203;SDS011;49297;43.210;27.914;2022-09-02T12:06:21;23.42;;;7.38;;
63203;SDS011;49297;43.210;27.914;2022-09-02T12:14:11;13.98;;;5.55;;
63203;SDS011;49297;43.210;27.914;2022-09-02T12:17:02;7.25;;;4.47;;
63203;SDS011;49297;43.210;27.914;2022-09-02T12:24:51;6.68;;;3.58;;
63203;SDS011;49297;43.210;27.914;2022-09-02T12:27:28;4.57;;;3.88;;
63203;SDS011;49297;43.210;27.914;2022-09-02T12:30:02;7.47;;;4.68;;
63203;SDS011;49297;43.210;27.914;2022-09-02T12:35:31;5.63;;;3.95;;
63203;SDS011;49297;43.210;27.914;2022-09-02T12:40:38;12.30;;;4.60;;
63203;SDS011;49297;43.210;27.914;2022-09-02T12:43:31;9.27;;;4.28;;
63203;SDS011;49297;43.210;27.914;2022-09-02T12:52:02;9.80;;;4.68;;
63203;SDS011;49297;43.210;27.914;2022-09-02T12:54:45;8.85;;;7.07;;
63203;SDS011;49297;43.210;27.914;2022-09-02T12:57:14;7.43;;;5.22;;
63203;SDS011;49297;43.210;27.914;2022-09-02T13:02:27;5.05;;;3.80;;
63203;SDS011;49297;43.210;27.914;2022-09-02T13:07:53;9.68;;;3.65;;
63203;SDS011;49297;43.210;27.914;2022-09-02T13:10:45;5.97;;;4.28;;
63203;SDS011;49297;43.210;27.914;2022-09-02T13:22:09;6.75;;;3.78;;
63203;SDS011;49297;43.210;27.914;2022-09-02T13:27:33;4.18;;;3.25;;
63203;SDS011;49297;43.210;27.914;2022-09-02T13:30:18;4.85;;;3.13;;
63203;SDS011;49297;43.210;27.914;2022-09-02T13:33:08;9.20;;;2.75;;
63203;SDS011;49297;43.210;27.914;2022-09-02T13:35:36;5.30;;;1.83;;
63203;SDS011;49297;43.210;27.914;2022-09-02T13:38:04;10.52;;;2.65;;
63203;SDS011;49297;43.210;27.914;2022-09-02T13:40:35;2.67;;;1.63;;
63203;SDS011;49297;43.210;27.914;2022-09-02T13:45:36;5.70;;;2.58;;
63203;SDS011;49297;43.210;27.914;2022-09-02T13:48:06;6.88;;;2.85;;
63203;SDS011;49297;43.210;27.914;2022-09-02T13:50:35;7.22;;;3.45;;
63203;SDS011;49297;43.210;27.914;2022-09-02T13:53:04;5.75;;;3.30;;
63203;SDS011;49297;43.210;27.914;2022-09-02T13:55:32;8.25;;;3.60;;
63203;SDS011;49297;43.210;27.914;2022-09-02T14:00:39;4.63;;;3.53;;
63203;SDS011;49297;43.210;27.914;2022-09-02T14:03:07;6.05;;;5.10;;
63203;SDS011;49297;43.210;27.914;2022-09-02T14:05:36;6.55;;;3.65;;
63203;SDS011;49297;43.210;27.914;2022-09-02T14:08:06;8.90;;;4.78;;
63203;SDS011;49297;43.210;27.914;2022-09-02T14:10:38;7.55;;;4.95;;
63203;SDS011;49297;43.210;27.914;2022-09-02T14:13:06;6.10;;;4.70;;
63203;SDS011;49297;43.210;27.914;2022-09-02T14:15:33;10.52;;;5.15;;
63203;SDS011;49297;43.210;27.914;2022-09-02T14:18:13;12.60;;;6.35;;
63203;SDS011;49297;43.210;27.914;2022-09-02T14:20:53;7.32;;;5.90;;
63203;SDS011;49297;43.210;27.914;2022-09-02T14:23:25;8.45;;;5.15;;
63203;SDS011;49297;43.210;27.914;2022-09-02T14:25:56;24.27;;;7.70;;
63203;SDS011;49297;43.210;27.914;2022-09-02T14:28:24;9.60;;;5.57;;
63203;SDS011;49297;43.210;27.914;2022-09-02T14:40:59;9.32;;;6.13;;
63203;SDS011;49297;43.210;27.914;2022-09-02T14:43:33;12.23;;;5.88;;
63203;SDS011;49297;43.210;27.914;2022-09-02T14:46:06;6.32;;;5.05;;
63203;SDS011;49297;43.210;27.914;2022-09-02T14:48:41;7.00;;;3.97;;
63203;SDS011;49297;43.210;27.914;2022-09-02T14:51:07;6.80;;;3.88;;
63203;SDS011;49297;43.210;27.914;2022-09-02T14:53:34;6.10;;;4.13;;
63203;SDS011;49297;43.210;27.914;2022-09-02T14:58:45;6.32;;;4.20;;
63203;SDS011;49297;43.210;27.914;2022-09-02T15:01:13;11.35;;;4.78;;
63203;SDS011;49297;43.210;27.914;2022-09-02T15:03:41;4.95;;;3.65;;
63203;SDS011;49297;43.210;27.914;2022-09-02T15:06:08;8.07;;;4.45;;
63203;SDS011;49297;43.210;27.914;2022-09-02T15:08:34;9.15;;;5.05;;
63203;SDS011;49297;43.210;27.914;2022-09-02T15:11:00;7.90;;;4.22;;
63203;SDS011;49297;43.210;27.914;2022-09-02T15:13:31;8.20;;;4.57;;
63203;SDS011;49297;43.210;27.914;2022-09-02T15:15:58;4.72;;;3.92;;
63203;SDS011;49297;43.210;27.914;2022-09-02T15:18:24;6.70;;;4.47;;
63203;SDS011;49297;43.210;27.914;2022-09-02T15:20:50;7.63;;;4.13;;
63203;SDS011;49297;43.210;27.914;2022-09-02T15:23:16;7.30;;;4.82;;
63203;SDS011;49297;43.210;27.914;2022-09-02T15:25:42;6.60;;;4.00;;
63203;SDS011;49297;43.210;27.914;2022-09-02T15:28:08;8.82;;;3.95;;
63203;SDS011;49297;43.210;27.914;2022-09-02T15:30:35;10.10;;;4.68;;
63203;SDS011;49297;43.210;27.914;2022-09-02T15:33:02;10.30;;;5.22;;
63203;SDS011;49297;43.210;27.914;2022-09-02T15:35:30;13.05;;;5.18;;
63203;SDS011;49297;43.210;27.914;2022-09-02T15:37:56;11.10;;;3.83;;
63203;SDS011;49297;43.210;27.914;2022-09-02T15:40:22;10.65;;;5.05;;
63203;SDS011;49297;43.210;27.914;2022-09-02T15:42:48;6.55;;;4.15;;
63203;SDS011;49297;43.210;27.914;2022-09-02T15:45:14;12.23;;;4.03;;
63203;SDS011;49297;43.210;27.914;2022-09-02T15:47:42;11.95;;;4.18;;
63203;SDS011;49297;43.210;27.914;2022-09-02T15:50:08;10.57;;;5.22;;
63203;SDS011;49297;43.210;27.914;2022-09-02T15:52:34;5.40;;;4.05;;
63203;SDS011;49297;43.210;27.914;2022-09-02T15:55:01;9.85;;;4.63;;
63203;SDS011;49297;43.210;27.914;2022-09-02T15:57:27;6.03;;;4.47;;
63203;SDS011;49297;43.210;27.914;2022-09-02T15:59:54;12.43;;;4.65;;
63203;SDS011;49297;43.210;27.914;2022-09-02T16:02:20;9.85;;;4.85;;
63203;SDS011;49297;43.210;27.914;2022-09-02T16:04:46;11.00;;;5.00;;
63203;SDS011;49297;43.210;27.914;2022-09-02T16:07:12;8.23;;;4.90;;
63203;SDS011;49297;43.210;27.914;2022-09-02T16:14:30;7.45;;;4.55;;
63203;SDS011;49297;43.210;27.914;2022-09-02T16:16:57;13.55;;;5.18;;
63203;SDS011;49297;43.210;27.914;2022-09-02T16:19:24;9.38;;;3.80;;
63203;SDS011;49297;43.210;27.914;2022-09-02T16:21:50;8.77;;;4.22;;
63203;SDS011;49297;43.210;27.914;2022-09-02T16:24:17;7.47;;;4.05;;
63203;SDS011;49297;43.210;27.914;2022-09-02T16:26:45;7.65;;;4.00;;
63203;SDS011;49297;43.210;27.914;2022-09-02T16:29:12;14.10;;;4.32;;
63203;SDS011;49297;43.210;27.914;2022-09-02T16:31:41;7.07;;;3.65;;
63203;SDS011;49297;43.210;27.914;2022-09-02T16:34:15;6.05;;;3.33;;
63203;SDS011;49297;43.210;27.914;2022-09-02T16:36:42;4.75;;;3.47;;
63203;SDS011;49297;43.210;27.914;2022-09-02T16:39:10;6.03;;;3.08;;
63203;SDS011;49297;43.210;27.914;2022-09-02T16:44:12;10.35;;;5.35;;
63203;SDS011;49297;43.210;27.914;2022-09-02T16:49:08;5.50;;;4.43;;
63203;SDS011;49297;43.210;27.914;2022-09-02T16:51:37;12.52;;;5.65;;
63203;SDS011;49297;43.210;27.914;2022-09-02T16:54:05;10.13;;;8.45;;
63203;SDS011;49297;43.210;27.914;2022-09-02T16:56:33;19.55;;;9.60;;
63203;SDS011;49297;43.210;27.914;2022-09-02T16:59:01;12.35;;;9.25;;
63203;SDS011;49297;43.210;27.914;2022-09-02T17:01:29;10.70;;;7.53;;
63203;SDS011;49297;43.210;27.914;2022-09-02T17:03:56;16.05;;;7.95;;
63203;SDS011;49297;43.210;27.914;2022-09-02T17:06:23;12.82;;;6.60;;
63203;SDS011;49297;43.210;27.914;2022-09-02T17:08:48;12.73;;;6.65;;
63203;SDS011;49297;43.210;27.914;2022-09-02T17:13:41;11.93;;;6.15;;
63203;SDS011;49297;43.210;27.914;2022-09-02T17:16:07;10.90;;;7.63;;
63203;SDS011;49297;43.210;27.914;2022-09-02T17:18:33;8.77;;;6.43;;
63203;SDS011;49297;43.210;27.914;2022-09-02T17:21:12;16.33;;;7.97;;
63203;SDS011;49297;43.210;27.914;2022-09-02T17:23:41;11.63;;;7.85;;
63203;SDS011;49297;43.210;27.914;2022-09-02T17:26:07;14.02;;;7.88;;
63203;SDS011;49297;43.210;27.914;2022-09-02T17:38:19;12.18;;;7.13;;
63203;SDS011;49297;43.210;27.914;2022-09-02T17:40:45;17.13;;;7.63;;
63203;SDS011;49297;43.210;27.914;2022-09-02T17:43:29;12.43;;;7.28;;
63203;SDS011;49297;43.210;27.914;2022-09-02T17:46:05;13.23;;;8.45;;
63203;SDS011;49297;43.210;27.914;2022-09-02T17:48:32;11.60;;;7.28;;
63203;SDS011;49297;43.210;27.914;2022-09-02T17:50:58;15.35;;;8.52;;
63203;SDS011;49297;43.210;27.914;2022-09-02T17:53:24;13.85;;;8.38;;
63203;SDS011;49297;43.210;27.914;2022-09-02T17:55:55;9.38;;;7.43;;
63203;SDS011;49297;43.210;27.914;2022-09-02T17:58:36;10.77;;;7.97;;
63203;SDS011;49297;43.210;27.914;2022-09-02T18:01:13;18.25;;;9.18;;